createdAt,value
2019-01-11T00:00:46.330Z,10.00
2019-01-11T00:01:53.108Z,10.40
2019-01-11T00:02:53.301Z,10.30
2019-01-11T00:03:45.602Z,10.10
2019-01-11T00:04:46.796Z,9.80
2019-01-11T00:05:45.648Z,9.60
2019-01-11T00:06:48.770Z,10.20
2019-01-11T00:07:46.223Z,10.20
2019-01-11T00:08:44.413Z,9.90
2019-01-11T00:09:44.298Z,10.80
2019-01-11T00:10:42.566Z,10.90
2019-01-11T00:11:42.610Z,10.10
2019-01-11T00:12:43.467Z,11.20
2019-01-11T00:13:43.889Z,11.50
2019-01-11T00:14:41.634Z,11.60
2019-01-11T00:15:42.144Z,10.80
2019-01-11T00:20:03.540Z,11.50
2019-01-11T00:23:28.604Z,12.30
2019-01-11T00:28:05.289Z,13.70
2019-01-11T00:29:05.056Z,13.70
2019-01-11T00:30:05.117Z,13.50
2019-01-11T00:31:05.228Z,13.80
2019-01-11T00:32:04.899Z,14.00
2019-01-11T00:33:16.007Z,14.20
2019-01-11T00:34:15.947Z,14.70
2019-01-11T00:36:45.299Z,14.70
2019-01-11T00:40:13.105Z,15.50
2019-01-11T00:41:24.959Z,16.00
2019-01-11T00:44:18.154Z,17.70
2019-01-11T00:47:01.166Z,17.40
2019-01-11T00:48:00.651Z,18.50
2019-01-11T00:49:00.854Z,18.30
2019-01-11T00:50:00.333Z,18.20
2019-01-11T00:51:00.921Z,18.80
2019-01-11T00:52:00.792Z,17.80
2019-01-11T00:53:00.153Z,18.70
2019-01-11T00:54:00.069Z,18.70
2019-01-11T00:54:59.947Z,18.10
2019-01-11T00:55:59.879Z,18.90
2019-01-11T00:56:59.867Z,16.60
2019-01-11T00:57:59.849Z,15.70
2019-01-11T00:59:10.099Z,15.10
2019-01-11T01:02:42.097Z,14.70
2019-01-11T01:03:58.691Z,13.20
2019-01-11T01:04:51.365Z,12.70
2019-01-11T01:06:00.291Z,12.70
2019-01-11T01:06:41.911Z,12.60
2019-01-11T01:09:57.233Z,13.70
2019-01-11T01:12:50.410Z,14.80
2019-01-11T01:13:50.725Z,15.10
2019-01-11T01:14:50.292Z,16.70
2019-01-11T01:15:50.148Z,16.30
2019-01-11T01:16:50.041Z,16.90
2019-01-11T01:17:50.760Z,17.20
2019-01-11T01:18:50.489Z,18.10
2019-01-11T01:19:49.686Z,18.30
2019-01-11T01:20:49.175Z,19.90
2019-01-11T01:21:49.320Z,19.90
2019-01-11T01:22:49.121Z,19.70
2019-01-11T01:23:49.027Z,21.00
2019-01-11T01:24:48.963Z,21.00
2019-01-11T01:25:48.973Z,21.40
2019-01-11T01:26:48.852Z,22.20
2019-01-11T01:27:48.812Z,22.50
2019-01-11T01:28:48.801Z,21.10
2019-01-11T01:29:48.721Z,21.10
2019-01-11T01:30:48.648Z,21.10
2019-01-11T01:31:48.625Z,21.60
2019-01-11T01:32:48.566Z,20.60
2019-01-11T01:33:48.556Z,20.40
2019-01-11T01:34:48.470Z,21.00
2019-01-11T01:35:48.459Z,22.10
2019-01-11T01:36:48.382Z,22.20
2019-01-11T01:37:48.333Z,23.00
2019-01-11T01:38:48.285Z,22.60
2019-01-11T01:39:48.519Z,23.10
2019-01-11T01:40:48.288Z,22.60
2019-01-11T01:41:48.411Z,24.90
2019-01-11T01:42:48.093Z,25.60
2019-01-11T01:43:48.052Z,25.40
2019-01-11T01:44:48.045Z,26.40
2019-01-11T01:45:47.942Z,26.90
2019-01-11T01:46:47.918Z,27.70
2019-01-11T01:47:47.877Z,29.00
2019-01-11T01:48:48.067Z,28.00
2019-01-11T01:49:47.768Z,27.80
2019-01-11T01:50:47.875Z,29.80
2019-01-11T01:51:48.044Z,30.50
2019-01-11T01:52:47.639Z,30.60
2019-01-11T01:53:47.583Z,30.80
2019-01-11T01:54:47.974Z,30.50
2019-01-11T01:55:47.482Z,31.20
2019-01-11T01:56:47.448Z,32.70
2019-01-11T01:57:47.467Z,33.80
2019-01-11T01:58:47.427Z,33.80
2019-01-11T01:59:47.292Z,34.30
2019-01-11T02:00:47.247Z,34.50
2019-01-11T02:01:47.184Z,34.90
2019-01-11T02:02:47.298Z,34.80
2019-01-11T02:03:47.115Z,36.40
2019-01-11T02:04:47.073Z,36.60
2019-01-11T02:05:47.244Z,37.80
2019-01-11T02:06:46.967Z,38.50
2019-01-11T02:07:47.151Z,38.80
2019-01-11T02:08:46.878Z,38.10
2019-01-11T02:09:47.011Z,38.70
2019-01-11T02:10:46.774Z,40.60
2019-01-11T02:11:46.752Z,41.40
2019-01-11T02:12:46.704Z,41.70
2019-01-11T02:13:46.630Z,42.00
2019-01-11T02:14:46.692Z,42.20
2019-01-11T02:15:46.548Z,41.60
2019-01-11T02:16:46.496Z,42.60
2019-01-11T02:17:46.492Z,41.40
2019-01-11T02:18:47.088Z,43.80
2019-01-11T02:19:46.377Z,45.20
2019-01-11T02:20:46.317Z,45.80
2019-01-11T02:21:46.522Z,44.90
2019-01-11T02:22:46.234Z,46.60
2019-01-11T02:23:46.214Z,48.20
2019-01-11T02:24:46.116Z,46.80
2019-01-11T02:25:46.343Z,47.40
2019-01-11T02:26:46.037Z,47.30
2019-01-11T02:27:45.985Z,48.80
2019-01-11T02:28:46.109Z,48.20
2019-01-11T02:29:45.951Z,49.60
2019-01-11T02:30:45.862Z,49.30
2019-01-11T02:31:56.719Z,49.70
2019-01-11T02:32:52.371Z,48.60
2019-01-11T02:33:45.793Z,49.00
2019-01-11T02:34:46.399Z,47.80
2019-01-11T02:35:46.230Z,49.50
2019-01-11T02:36:45.583Z,49.50
2019-01-11T02:37:45.528Z,48.50
2019-01-11T02:38:45.475Z,48.00
2019-01-11T02:39:45.430Z,47.90
2019-01-11T02:40:45.513Z,47.10
2019-01-11T02:41:45.343Z,48.20
2019-01-11T02:42:45.278Z,47.40
2019-01-11T02:43:45.335Z,49.40
2019-01-11T02:44:45.233Z,49.10
2019-01-11T02:45:45.186Z,46.70
2019-01-11T02:46:45.108Z,48.00
2019-01-11T02:47:45.173Z,48.30
2019-01-11T02:48:45.036Z,48.20
2019-01-11T02:49:44.959Z,48.60
2019-01-11T02:52:36.285Z,51.20
2019-01-11T02:53:35.780Z,50.30
2019-01-11T02:54:36.119Z,51.90
2019-01-11T02:57:27.825Z,54.30
2019-01-11T02:58:27.866Z,52.50
2019-01-11T02:59:27.728Z,52.20
2019-01-11T03:00:27.243Z,52.70
2019-01-11T03:01:26.922Z,52.60
2019-01-11T03:02:26.708Z,51.70
2019-01-11T03:03:27.618Z,52.60
2019-01-11T03:04:27.722Z,52.30
2019-01-11T03:05:27.081Z,50.80
2019-01-11T03:06:26.553Z,53.30
2019-01-11T03:07:26.437Z,53.50
2019-01-11T03:08:26.414Z,53.90
2019-01-11T03:09:26.348Z,51.70
2019-01-11T03:10:26.326Z,51.50
2019-01-11T03:11:26.305Z,53.40
2019-01-11T03:12:26.247Z,52.00
2019-01-11T03:13:26.183Z,53.80
2019-01-11T03:14:26.129Z,55.40
2019-01-11T03:15:26.101Z,52.30
2019-01-11T03:16:26.050Z,54.50
2019-01-11T03:17:26.014Z,53.30
2019-01-11T03:18:25.928Z,55.30
2019-01-11T03:19:25.914Z,55.90
2019-01-11T03:20:25.835Z,56.20
2019-01-11T03:21:25.821Z,54.90
2019-01-11T03:22:25.755Z,56.60
2019-01-11T03:23:25.736Z,55.50
2019-01-11T03:24:25.656Z,57.40
2019-01-11T03:25:25.615Z,57.20
2019-01-11T03:26:25.591Z,57.40
2019-01-11T03:27:25.521Z,58.70
2019-01-11T03:28:25.458Z,56.90
2019-01-11T03:29:25.408Z,57.60
2019-01-11T03:30:25.377Z,57.80
2019-01-11T03:31:25.327Z,56.50
2019-01-11T03:32:25.310Z,57.60
2019-01-11T03:33:25.243Z,58.70
2019-01-11T03:34:25.217Z,58.30
2019-01-11T03:35:25.146Z,59.90
2019-01-11T03:36:25.151Z,58.00
2019-01-11T03:37:25.077Z,60.50
2019-01-11T03:38:24.998Z,60.80
2019-01-11T03:39:24.954Z,61.80
2019-01-11T03:40:24.907Z,62.20
2019-01-11T03:41:24.876Z,60.40
2019-01-11T03:42:24.835Z,61.90
2019-01-11T03:43:24.770Z,60.40
2019-01-11T03:44:24.752Z,61.50
2019-01-11T03:45:24.672Z,63.00
2019-01-11T03:46:24.614Z,61.60
2019-01-11T03:47:24.616Z,61.80
2019-01-11T03:48:24.550Z,62.10
2019-01-11T03:49:24.498Z,62.60
2019-01-11T03:50:24.464Z,63.60
2019-01-11T03:51:24.403Z,62.40
2019-01-11T03:52:24.354Z,64.80
2019-01-11T03:53:24.339Z,66.50
2019-01-11T03:54:24.262Z,63.50
2019-01-11T03:55:24.212Z,64.90
2019-01-11T03:56:24.165Z,65.00
2019-01-11T03:57:24.127Z,67.20
2019-01-11T03:58:24.097Z,68.10
2019-01-11T03:59:24.069Z,65.90
2019-01-11T04:00:23.973Z,66.00
2019-01-11T04:01:23.928Z,62.90
2019-01-11T04:02:23.896Z,65.00
2019-01-11T04:03:23.887Z,63.90
2019-01-11T04:04:23.793Z,61.00
2019-01-11T04:05:23.756Z,62.50
2019-01-11T04:06:23.708Z,63.10
2019-01-11T04:07:23.691Z,63.50
2019-01-11T04:08:23.615Z,63.40
2019-01-11T04:09:23.612Z,63.50
2019-01-11T04:10:23.528Z,64.20
2019-01-11T04:11:23.468Z,64.80
2019-01-11T04:12:23.473Z,65.20
2019-01-11T04:13:30.348Z,66.10
2019-01-11T04:14:23.318Z,67.10
2019-01-11T04:15:23.298Z,65.40
2019-01-11T04:16:23.250Z,65.20
2019-01-11T04:17:23.185Z,62.50
2019-01-11T04:18:23.186Z,64.50
2019-01-11T04:19:23.088Z,62.40
2019-01-11T04:20:23.045Z,61.80
2019-01-11T04:21:23.022Z,61.40
2019-01-11T04:22:22.979Z,62.40
2019-01-11T04:23:22.971Z,60.60
2019-01-11T04:24:22.886Z,62.00
2019-01-11T04:25:23.498Z,61.50
2019-01-11T04:26:22.794Z,61.00
2019-01-11T04:27:22.730Z,60.70
2019-01-11T04:28:22.724Z,63.30
2019-01-11T04:29:22.657Z,63.60
2019-01-11T04:30:22.605Z,65.50
2019-01-11T04:31:22.554Z,64.90
2019-01-11T04:32:22.518Z,63.40
2019-01-11T04:33:22.431Z,63.90
2019-01-11T04:34:22.426Z,62.60
2019-01-11T04:35:22.356Z,64.10
2019-01-11T04:36:22.291Z,63.60
2019-01-11T04:37:22.267Z,61.50
2019-01-11T04:38:22.228Z,61.10
2019-01-11T04:39:22.243Z,60.10
2019-01-11T04:40:22.145Z,61.60
2019-01-11T04:41:22.093Z,61.40
2019-01-11T04:42:22.034Z,61.80
2019-01-11T04:43:21.990Z,64.30
2019-01-11T04:44:21.918Z,61.50
2019-01-11T04:45:21.910Z,60.40
2019-01-11T04:46:21.837Z,58.70
2019-01-11T04:47:21.807Z,59.30
2019-01-11T04:48:21.745Z,54.80
2019-01-11T04:49:21.741Z,57.40
2019-01-11T04:50:21.656Z,58.60
2019-01-11T04:51:21.628Z,57.60
2019-01-11T04:52:21.591Z,56.70
2019-01-11T04:53:21.510Z,56.90
2019-01-11T04:54:21.450Z,56.10
2019-01-11T04:55:21.441Z,55.60
2019-01-11T04:56:21.395Z,55.90
2019-01-11T04:57:21.318Z,53.80
2019-01-11T04:58:21.315Z,53.90
2019-01-11T04:59:21.275Z,49.90
2019-01-11T05:00:21.193Z,49.90
2019-01-11T05:01:21.189Z,50.70
2019-01-11T05:02:21.105Z,50.60
2019-01-11T05:03:21.041Z,51.20
2019-01-11T05:04:21.017Z,49.90
2019-01-11T05:05:20.989Z,50.40
2019-01-11T05:06:20.940Z,50.70
2019-01-11T05:07:20.884Z,47.80
2019-01-11T05:08:20.827Z,48.10
2019-01-11T05:09:20.778Z,48.30
2019-01-11T05:10:20.751Z,48.70
2019-01-11T05:11:20.712Z,50.00
2019-01-11T05:12:20.655Z,48.30
2019-01-11T05:13:20.634Z,47.50
2019-01-11T05:14:20.549Z,48.20
2019-01-11T05:15:20.524Z,47.70
2019-01-11T05:16:20.473Z,46.80
2019-01-11T05:17:20.440Z,47.90
2019-01-11T05:18:20.384Z,47.50
2019-01-11T05:19:20.314Z,48.90
2019-01-11T05:20:20.300Z,48.60
2019-01-11T05:21:20.255Z,48.00
2019-01-11T05:22:20.197Z,49.20
2019-01-11T05:23:20.143Z,47.90
2019-01-11T05:24:20.122Z,49.50
2019-01-11T05:25:20.080Z,47.80
2019-01-11T05:26:20.005Z,50.10
2019-01-11T05:27:19.937Z,49.40
2019-01-11T05:28:19.932Z,48.20
2019-01-11T05:29:19.872Z,47.60
2019-01-11T05:30:19.835Z,50.00
2019-01-11T05:31:19.771Z,50.40
2019-01-11T05:32:19.765Z,50.20
2019-01-11T05:33:19.663Z,50.40
2019-01-11T05:34:19.608Z,50.50
2019-01-11T05:35:19.583Z,49.40
2019-01-11T05:36:19.562Z,51.20
2019-01-11T05:37:19.517Z,50.80
2019-01-11T05:38:19.474Z,51.40
2019-01-11T05:39:19.419Z,49.30
2019-01-11T05:40:19.367Z,49.30
2019-01-11T05:41:19.339Z,49.80
2019-01-11T05:42:19.254Z,50.10
2019-01-11T05:43:19.206Z,49.10
2019-01-11T05:44:19.165Z,50.10
2019-01-11T05:45:19.126Z,49.40
2019-01-11T05:46:19.088Z,50.40
2019-01-11T05:47:19.024Z,50.20
2019-01-11T05:48:18.973Z,51.50
2019-01-11T05:49:18.953Z,49.80
2019-01-11T05:50:24.085Z,50.70
2019-01-11T05:51:18.891Z,51.40
2019-01-11T05:52:18.846Z,50.00
2019-01-11T05:53:18.749Z,51.00
2019-01-11T05:54:18.696Z,49.20
2019-01-11T05:55:18.659Z,47.00
2019-01-11T05:56:18.607Z,39.20
2019-01-11T05:57:18.603Z,46.80
2019-01-11T05:58:28.949Z,40.40
2019-01-11T06:00:58.594Z,32.40
2019-01-11T06:01:58.071Z,32.20
2019-01-11T06:02:57.903Z,31.70
2019-01-11T06:03:57.657Z,31.60
2019-01-11T06:04:58.289Z,29.90
2019-01-11T06:05:57.514Z,29.40
2019-01-11T06:06:57.463Z,30.80
2019-01-11T06:07:57.395Z,30.50
2019-01-11T06:08:57.357Z,33.10
2019-01-11T06:09:57.351Z,32.60
2019-01-11T06:10:57.268Z,32.30
2019-01-11T06:11:57.223Z,32.20
2019-01-11T06:12:57.186Z,32.30
2019-01-11T06:13:57.114Z,31.00
2019-01-11T06:14:57.078Z,31.80
2019-01-11T06:15:57.059Z,31.90
2019-01-11T06:16:56.982Z,30.10
2019-01-11T06:17:56.933Z,29.90
2019-01-11T06:18:56.927Z,28.60
2019-01-11T06:19:56.862Z,27.90
2019-01-11T06:20:56.827Z,27.20
2019-01-11T06:21:56.746Z,26.70
2019-01-11T06:22:56.703Z,28.90
2019-01-11T06:23:56.667Z,28.80
2019-01-11T06:24:56.626Z,30.40
2019-01-11T06:25:56.598Z,33.60
2019-01-11T06:26:56.510Z,35.20
2019-01-11T06:27:56.494Z,38.20
2019-01-11T06:28:56.475Z,38.40
2019-01-11T06:29:56.411Z,41.20
2019-01-11T06:30:56.334Z,42.80
2019-01-11T06:31:56.303Z,44.30
2019-01-11T06:32:56.241Z,45.60
2019-01-11T06:33:56.213Z,47.20
2019-01-11T06:34:56.213Z,46.10
2019-01-11T06:35:56.119Z,48.80
2019-01-11T06:36:56.078Z,48.50
2019-01-11T06:37:56.055Z,49.50
2019-01-11T06:38:55.989Z,50.00
2019-01-11T06:39:55.963Z,49.20
2019-01-11T06:40:55.888Z,49.70
2019-01-11T06:41:55.861Z,50.10
2019-01-11T06:42:55.784Z,50.40
2019-01-11T06:43:55.765Z,51.10
2019-01-11T06:44:55.686Z,51.20
2019-01-11T06:45:55.710Z,51.00
2019-01-11T06:46:55.626Z,53.20
2019-01-11T06:47:55.563Z,54.40
2019-01-11T06:48:55.548Z,55.00
2019-01-11T06:49:55.479Z,53.70
2019-01-11T06:50:55.461Z,56.40
2019-01-11T06:51:55.394Z,55.10
2019-01-11T06:52:55.511Z,56.30
2019-01-11T06:53:55.280Z,57.60
2019-01-11T06:54:55.281Z,59.00
2019-01-11T06:55:55.264Z,62.00
2019-01-11T06:56:55.164Z,61.20
2019-01-11T06:57:55.107Z,60.80
2019-01-11T06:58:55.052Z,60.90
2019-01-11T06:59:55.016Z,59.10
2019-01-11T07:00:55.009Z,62.10
2019-01-11T07:01:54.947Z,63.90
2019-01-11T07:02:54.922Z,64.30
2019-01-11T07:03:54.847Z,65.90
2019-01-11T07:04:54.775Z,64.90
2019-01-11T07:05:54.742Z,63.70
2019-01-11T07:06:54.691Z,65.60
2019-01-11T07:07:54.693Z,64.80
2019-01-11T07:08:54.629Z,66.80
2019-01-11T07:09:54.585Z,67.20
2019-01-11T07:10:54.525Z,63.80
2019-01-11T07:11:54.466Z,65.10
2019-01-11T07:12:54.424Z,66.70
2019-01-11T07:13:54.418Z,67.80
2019-01-11T07:14:54.336Z,70.90
2019-01-11T07:15:54.265Z,65.90
2019-01-11T07:16:54.242Z,65.90
2019-01-11T07:17:54.199Z,66.00
2019-01-11T07:18:54.790Z,67.60
2019-01-11T07:19:54.120Z,66.00
2019-01-11T07:20:54.073Z,70.50
2019-01-11T07:21:54.008Z,66.80
2019-01-11T07:22:53.989Z,72.60
2019-01-11T07:23:53.908Z,70.00
2019-01-11T07:24:53.868Z,73.30
2019-01-11T07:25:53.812Z,69.40
2019-01-11T07:26:53.798Z,70.50
2019-01-11T07:27:53.767Z,75.10
2019-01-11T07:28:53.695Z,70.80
2019-01-11T07:29:53.625Z,71.60
2019-01-11T07:30:53.619Z,73.40
2019-01-11T07:31:53.574Z,68.00
2019-01-11T07:32:53.546Z,68.40
2019-01-11T07:33:53.467Z,74.50
2019-01-11T07:34:53.409Z,68.30
2019-01-11T07:35:53.377Z,69.80
2019-01-11T07:36:53.394Z,71.00
2019-01-11T07:37:53.291Z,74.70
2019-01-11T07:38:53.273Z,75.60
2019-01-11T07:39:53.187Z,74.30
2019-01-11T07:40:53.144Z,74.90
2019-01-11T07:41:53.112Z,70.00
2019-01-11T07:42:53.090Z,68.80
2019-01-11T07:43:52.985Z,70.90
2019-01-11T07:44:52.981Z,70.10
2019-01-11T07:45:52.920Z,67.70
2019-01-11T07:46:52.851Z,67.30
2019-01-11T07:47:52.816Z,63.10
2019-01-11T07:48:52.788Z,62.70
2019-01-11T07:49:52.708Z,64.10
2019-01-11T07:50:52.680Z,62.40
2019-01-11T07:51:52.623Z,63.20
2019-01-11T07:52:52.672Z,60.10
2019-01-11T07:53:52.547Z,59.90
2019-01-11T07:54:52.509Z,59.70
2019-01-11T07:55:52.452Z,57.60
2019-01-11T07:56:52.396Z,59.60
2019-01-11T07:57:52.392Z,57.30
2019-01-11T07:58:52.343Z,58.90
2019-01-11T07:59:52.281Z,57.10
2019-01-11T08:00:52.228Z,55.80
2019-01-11T08:01:52.186Z,56.70
2019-01-11T08:02:52.147Z,57.10
2019-01-11T08:03:52.119Z,56.70
2019-01-11T08:04:52.040Z,57.40
2019-01-11T08:05:52.071Z,55.70
2019-01-11T08:06:51.967Z,56.10
2019-01-11T08:07:51.897Z,54.80
2019-01-11T08:08:51.847Z,54.10
2019-01-11T08:09:51.812Z,56.30
2019-01-11T08:10:51.799Z,57.50
2019-01-11T08:12:01.170Z,57.50
2019-01-11T08:13:01.086Z,56.60
2019-01-11T08:13:51.644Z,57.00
2019-01-11T08:14:51.601Z,56.30
2019-01-11T08:15:51.554Z,55.40
2019-01-11T08:16:51.523Z,56.20
2019-01-11T08:17:51.448Z,55.60
2019-01-11T08:18:51.486Z,52.40
2019-01-11T08:19:51.397Z,51.30
2019-01-11T08:20:56.251Z,51.60
2019-01-11T08:21:51.324Z,50.20
2019-01-11T08:22:51.249Z,50.50
2019-01-11T08:23:51.233Z,48.60
2019-01-11T08:24:51.124Z,47.10
2019-01-11T08:25:51.078Z,47.40
2019-01-11T08:26:51.058Z,48.50
2019-01-11T08:27:51.059Z,46.80
2019-01-11T08:28:50.973Z,48.80
2019-01-11T08:29:50.899Z,48.40
2019-01-11T08:30:50.856Z,46.90
2019-01-11T08:31:50.857Z,48.40
2019-01-11T08:32:50.780Z,47.70
2019-01-11T08:33:50.758Z,46.60
2019-01-11T08:34:50.662Z,46.40
2019-01-11T08:35:50.625Z,46.60
2019-01-11T08:36:50.571Z,46.10
2019-01-11T08:37:50.548Z,43.30
2019-01-11T08:38:50.495Z,44.20
2019-01-11T08:39:50.479Z,43.60
2019-01-11T08:40:50.397Z,43.70
2019-01-11T08:41:50.348Z,44.20
2019-01-11T08:42:50.310Z,44.00
2019-01-11T08:43:50.254Z,45.70
2019-01-11T08:44:50.201Z,47.40
2019-01-11T08:45:50.194Z,50.60
2019-01-11T08:46:50.113Z,51.40
2019-01-11T08:47:50.117Z,52.90
2019-01-11T08:48:50.046Z,52.20
2019-01-11T08:49:49.991Z,51.70
2019-01-11T08:50:49.983Z,52.40
2019-01-11T08:51:49.887Z,53.50
2019-01-11T08:52:49.858Z,52.80
2019-01-11T08:53:49.802Z,53.70
2019-01-11T08:54:49.762Z,54.40
2019-01-11T08:55:49.718Z,54.10
2019-01-11T08:56:49.701Z,53.70
2019-01-11T08:57:49.647Z,54.50
2019-01-11T08:58:50.680Z,54.00
2019-01-11T08:59:49.551Z,56.00
2019-01-11T09:00:49.505Z,53.60
2019-01-11T09:01:49.459Z,54.50
2019-01-11T09:02:49.442Z,55.50
2019-01-11T09:03:49.364Z,57.40
2019-01-11T09:04:49.338Z,57.70
2019-01-11T09:05:49.284Z,55.60
2019-01-11T09:06:49.218Z,56.40
2019-01-11T09:07:49.177Z,55.60
2019-01-11T09:08:49.221Z,55.30
2019-01-11T09:09:49.092Z,55.40
2019-01-11T09:10:49.040Z,54.80
2019-01-11T09:11:49.029Z,56.90
2019-01-11T09:12:48.978Z,56.00
2019-01-11T09:13:48.900Z,55.40
2019-01-11T09:14:48.879Z,54.70
2019-01-11T09:15:49.157Z,55.40
2019-01-11T09:16:48.805Z,55.70
2019-01-11T09:17:48.721Z,55.80
2019-01-11T09:18:48.899Z,56.60
2019-01-11T09:19:48.667Z,56.10
2019-01-11T09:20:48.594Z,53.70
2019-01-11T09:21:48.550Z,53.60
2019-01-11T09:22:48.482Z,51.40
2019-01-11T09:23:48.463Z,51.90
2019-01-11T09:24:48.408Z,51.20
2019-01-11T09:25:48.415Z,49.00
2019-01-11T09:26:48.326Z,47.60
2019-01-11T09:27:48.262Z,48.20
2019-01-11T09:28:48.218Z,49.50
2019-01-11T09:29:48.179Z,49.00
2019-01-11T09:30:48.132Z,49.00
2019-01-11T09:31:48.116Z,47.70
2019-01-11T09:32:48.042Z,47.80
2019-01-11T09:33:47.993Z,48.20
2019-01-11T09:34:47.938Z,47.50
2019-01-11T09:35:47.919Z,48.20
2019-01-11T09:36:47.864Z,46.40
2019-01-11T09:37:47.847Z,47.00
2019-01-11T09:38:47.772Z,46.30
2019-01-11T09:39:47.736Z,47.60
2019-01-11T09:40:47.698Z,46.50
2019-01-11T09:41:47.623Z,46.40
2019-01-11T09:42:47.619Z,47.10
2019-01-11T09:43:47.578Z,47.30
2019-01-11T09:44:47.512Z,46.70
2019-01-11T09:45:47.505Z,46.90
2019-01-11T09:46:47.431Z,46.70
2019-01-11T09:47:47.360Z,46.70
2019-01-11T09:48:47.335Z,47.20
2019-01-11T09:49:47.287Z,46.50
2019-01-11T09:50:47.260Z,47.40
2019-01-11T09:51:47.197Z,46.10
2019-01-11T09:52:47.172Z,47.50
2019-01-11T09:53:47.140Z,48.00
2019-01-11T09:54:47.085Z,48.70
2019-01-11T09:55:47.022Z,47.20
2019-01-11T09:56:46.983Z,46.90
2019-01-11T09:57:46.911Z,47.80
2019-01-11T09:58:46.896Z,49.80
2019-01-11T09:59:46.858Z,49.90
2019-01-11T10:00:46.788Z,49.30
2019-01-11T10:01:46.734Z,51.40
2019-01-11T10:02:46.692Z,50.10
2019-01-11T10:03:46.674Z,51.20
2019-01-11T10:04:46.608Z,50.70
2019-01-11T10:05:46.583Z,49.80
2019-01-11T10:06:46.517Z,48.40
2019-01-11T10:07:46.500Z,50.60
2019-01-11T10:08:46.423Z,49.50
2019-01-11T10:09:46.386Z,48.90
2019-01-11T10:10:46.366Z,49.70
2019-01-11T10:11:46.301Z,49.30
2019-01-11T10:12:46.240Z,49.80
2019-01-11T10:13:46.240Z,50.30
2019-01-11T10:14:46.150Z,51.80
2019-01-11T10:15:46.120Z,50.80
2019-01-11T10:16:46.092Z,51.10
2019-01-11T10:17:46.022Z,50.90
2019-01-11T10:18:45.987Z,51.00
2019-01-11T10:19:45.956Z,52.60
2019-01-11T10:20:45.874Z,52.10
2019-01-11T10:21:45.848Z,51.50
2019-01-11T10:22:45.834Z,55.70
2019-01-11T10:23:45.782Z,52.60
2019-01-11T10:24:45.749Z,54.10
2019-01-11T10:25:45.666Z,51.60
2019-01-11T10:26:45.621Z,53.30
2019-01-11T10:27:45.575Z,53.90
2019-01-11T10:28:45.550Z,52.50
2019-01-11T10:29:45.495Z,52.50
2019-01-11T10:30:45.454Z,50.60
2019-01-11T10:31:45.400Z,53.30
2019-01-11T10:32:45.369Z,52.30
2019-01-11T10:33:45.332Z,53.50
2019-01-11T10:34:45.268Z,52.20
2019-01-11T10:35:45.237Z,52.50
2019-01-11T10:36:45.164Z,55.70
2019-01-11T10:37:45.147Z,51.70
2019-01-11T10:38:45.135Z,53.30
2019-01-11T10:39:45.043Z,53.40
2019-01-11T10:40:44.986Z,51.90
2019-01-11T10:41:44.979Z,52.60
2019-01-11T10:42:44.915Z,54.40
2019-01-11T10:43:44.900Z,53.50
2019-01-11T10:44:44.848Z,55.80
2019-01-11T10:45:44.798Z,53.20
2019-01-11T10:46:49.028Z,52.90
2019-01-11T10:47:44.723Z,51.70
2019-01-11T10:48:44.645Z,53.20
2019-01-11T10:49:44.620Z,52.20
2019-01-11T10:50:44.603Z,53.10
2019-01-11T10:51:44.510Z,52.50
2019-01-11T10:52:44.477Z,51.60
2019-01-11T10:53:44.425Z,51.40
2019-01-11T10:54:44.368Z,50.80
2019-01-11T10:55:44.338Z,52.10
2019-01-11T10:56:44.330Z,51.10
2019-01-11T10:57:44.257Z,52.50
2019-01-11T10:58:44.206Z,52.10
2019-01-11T10:59:44.153Z,51.70
2019-01-11T11:00:44.165Z,50.60
2019-01-11T11:01:44.059Z,50.70
2019-01-11T11:02:44.034Z,48.50
2019-01-11T11:03:43.987Z,50.40
2019-01-11T11:04:43.938Z,48.40
2019-01-11T11:05:43.908Z,50.60
2019-01-11T11:06:43.849Z,50.30
2019-01-11T11:07:43.847Z,53.60
2019-01-11T11:08:43.747Z,53.20
2019-01-11T11:09:43.721Z,53.90
2019-01-11T11:10:43.714Z,51.50
2019-01-11T11:11:43.623Z,53.60
2019-01-11T11:12:43.589Z,52.70
2019-01-11T11:13:43.543Z,55.50
2019-01-11T11:14:43.513Z,54.50
2019-01-11T11:15:43.464Z,54.00
2019-01-11T11:16:43.437Z,54.10
2019-01-11T11:17:43.383Z,55.10
2019-01-11T11:18:43.358Z,55.00
2019-01-11T11:19:43.279Z,55.20
2019-01-11T11:20:43.253Z,54.80
2019-01-11T11:21:43.177Z,56.50
2019-01-11T11:22:43.163Z,57.00
2019-01-11T11:23:43.103Z,56.50
2019-01-11T11:24:43.073Z,56.80
2019-01-11T11:25:43.018Z,57.00
2019-01-11T11:26:43.030Z,57.70
2019-01-11T11:27:42.923Z,58.10
2019-01-11T11:28:42.882Z,56.00
2019-01-11T11:29:42.834Z,57.90
2019-01-11T11:30:42.798Z,57.80
2019-01-11T11:31:42.734Z,58.10
2019-01-11T11:32:42.722Z,57.30
2019-01-11T11:33:42.650Z,56.90
2019-01-11T11:34:42.620Z,56.40
2019-01-11T11:35:42.584Z,57.40
2019-01-11T11:36:42.545Z,57.80
2019-01-11T11:37:42.521Z,60.40
2019-01-11T11:38:42.465Z,59.80
2019-01-11T11:39:42.392Z,58.50
2019-01-11T11:40:42.354Z,61.80
2019-01-11T11:41:42.310Z,57.80
2019-01-11T11:42:42.286Z,58.30
2019-01-11T11:43:42.265Z,59.40
2019-01-11T11:44:42.171Z,58.10
2019-01-11T11:45:42.143Z,58.00
2019-01-11T11:46:42.112Z,58.70
2019-01-11T11:47:42.049Z,59.70
2019-01-11T11:48:42.019Z,59.90
2019-01-11T11:49:41.961Z,60.00
2019-01-11T11:50:41.921Z,59.00
2019-01-11T11:51:41.891Z,60.00
2019-01-11T11:52:41.835Z,59.40
2019-01-11T11:53:41.791Z,59.20
2019-01-11T11:54:41.741Z,58.80
2019-01-11T11:55:41.689Z,61.10
2019-01-11T11:56:41.666Z,59.30
2019-01-11T11:57:41.635Z,61.40
2019-01-11T11:58:41.569Z,60.40
2019-01-11T11:59:41.531Z,59.60
2019-01-11T12:00:41.490Z,60.00
2019-01-11T12:01:41.461Z,59.10
2019-01-11T12:02:41.388Z,59.50
2019-01-11T12:03:41.343Z,60.30
2019-01-11T12:04:41.294Z,60.80
2019-01-11T12:05:41.247Z,61.40
2019-01-11T12:06:41.237Z,61.40
2019-01-11T12:07:41.185Z,58.70
2019-01-11T12:08:41.118Z,60.10
2019-01-11T12:09:41.085Z,60.50
2019-01-11T12:10:41.056Z,60.10
2019-01-11T12:11:40.995Z,58.80
2019-01-11T12:12:40.976Z,59.50
2019-01-11T12:13:41.041Z,57.80
2019-01-11T12:14:40.902Z,59.30
2019-01-11T12:15:40.854Z,56.60
2019-01-11T12:16:40.766Z,58.60
2019-01-11T12:17:40.749Z,57.60
2019-01-11T12:18:40.764Z,55.60
2019-01-11T12:19:40.646Z,56.90
2019-01-11T12:20:40.609Z,58.50
2019-01-11T12:21:40.561Z,59.50
2019-01-11T12:22:40.515Z,58.20
2019-01-11T12:23:40.488Z,56.90
2019-01-11T12:24:40.468Z,55.80
2019-01-11T12:25:40.389Z,57.00
2019-01-11T12:26:40.330Z,57.70
2019-01-11T12:27:40.306Z,56.00
2019-01-11T12:28:40.260Z,54.00
2019-01-11T12:29:40.214Z,54.00
2019-01-11T12:30:40.210Z,54.90
2019-01-11T12:31:40.149Z,53.00
2019-01-11T12:32:40.091Z,52.70
2019-01-11T12:33:40.046Z,50.70
2019-01-11T12:34:49.501Z,47.90
2019-01-11T12:35:48.896Z,46.80
2019-01-11T12:36:39.921Z,47.20
2019-01-11T12:37:39.845Z,45.50
2019-01-11T12:38:39.817Z,45.30
2019-01-11T12:39:39.752Z,44.70
2019-01-11T12:40:39.746Z,45.90
2019-01-11T12:41:39.708Z,45.30
2019-01-11T12:42:39.636Z,44.50
2019-01-11T12:43:39.603Z,45.10
2019-01-11T12:44:39.532Z,45.30
2019-01-11T12:45:39.528Z,44.70
2019-01-11T12:46:39.455Z,44.70
2019-01-11T12:47:39.421Z,43.80
2019-01-11T12:48:39.385Z,45.10
2019-01-11T12:49:39.334Z,44.90
2019-01-11T12:50:39.294Z,45.10
2019-01-11T12:51:39.280Z,47.30
2019-01-11T12:52:39.202Z,48.50
2019-01-11T12:53:39.157Z,46.90
2019-01-11T12:54:39.105Z,47.20
2019-01-11T12:55:39.063Z,48.90
2019-01-11T12:56:39.038Z,47.40
2019-01-11T12:57:39.009Z,48.90
2019-01-11T12:58:38.933Z,48.00
2019-01-11T12:59:38.880Z,50.00
2019-01-11T13:00:38.854Z,49.30
2019-01-11T13:01:38.894Z,50.30
2019-01-11T13:02:38.752Z,49.20
2019-01-11T13:03:38.722Z,48.50
2019-01-11T13:04:38.690Z,47.70
2019-01-11T13:05:38.613Z,49.10
2019-01-11T13:06:38.574Z,50.50
2019-01-11T13:07:38.575Z,49.50
2019-01-11T13:08:38.499Z,50.30
2019-01-11T13:09:38.466Z,52.80
2019-01-11T13:10:38.425Z,51.10
2019-01-11T13:11:38.406Z,52.00
2019-01-11T13:12:38.337Z,50.90
2019-01-11T13:13:38.313Z,50.60
2019-01-11T13:14:38.232Z,51.00
2019-01-11T13:15:38.180Z,51.30
2019-01-11T13:16:38.147Z,51.90
2019-01-11T13:17:38.114Z,52.80
2019-01-11T13:18:38.070Z,52.80
2019-01-11T13:19:38.033Z,51.60
2019-01-11T13:20:38.010Z,51.20
2019-01-11T13:21:37.954Z,50.90